createdAt,value
2022-11-17T04:12:10.965Z,6.23
2022-11-17T04:15:51.856Z,6.23
2022-11-17T04:18:58.568Z,5.55
2022-11-17T04:22:01.410Z,5.60
2022-11-17T04:25:03.691Z,5.47
2022-11-17T04:28:24.777Z,5.41
2022-11-17T04:31:29.086Z,5.48
2022-11-17T04:34:31.362Z,5.54
2022-11-17T04:37:33.585Z,5.38
2022-11-17T04:40:55.877Z,5.62
2022-11-17T04:43:58.266Z,5.71
2022-11-17T04:47:03.198Z,5.80
2022-11-17T04:50:05.781Z,5.78
2022-11-17T04:53:08.114Z,5.81
2022-11-17T04:56:10.668Z,5.95
2022-11-17T04:59:13.002Z,6.13
2022-11-17T05:02:15.143Z,6.28
2022-11-17T05:05:17.497Z,6.21
2022-11-17T05:08:19.524Z,6.32
2022-11-17T05:11:42.854Z,6.44
2022-11-17T05:14:47.190Z,6.32
2022-11-17T05:17:49.493Z,6.24
2022-11-17T05:20:51.536Z,6.20
2022-11-17T05:23:53.924Z,6.15
2022-11-17T05:26:56.062Z,6.07
2022-11-17T05:29:58.390Z,6.03
2022-11-17T05:33:00.444Z,6.11
2022-11-17T05:36:03.193Z,6.13
2022-11-17T05:39:05.971Z,6.23
2022-11-17T05:42:08.683Z,6.15
2022-11-17T05:45:11.048Z,6.11
2022-11-17T05:48:13.383Z,6.06
2022-11-17T05:51:16.888Z,5.96
2022-11-17T05:54:19.266Z,5.92
2022-11-17T05:57:28.870Z,5.94
2022-11-17T06:00:32.351Z,6.05
2022-11-17T06:03:39.893Z,6.15
2022-11-17T06:06:41.934Z,6.19
2022-11-17T06:09:45.659Z,6.20
2022-11-17T06:12:47.824Z,6.20
2022-11-17T06:15:50.157Z,6.25
2022-11-17T06:18:59.460Z,6.28
2022-11-17T06:22:12.095Z,6.28
2022-11-17T06:25:16.669Z,6.14
2022-11-17T06:28:22.386Z,6.12
2022-11-17T06:31:27.780Z,6.16
2022-11-17T06:34:31.791Z,6.19
2022-11-17T06:37:33.885Z,6.38
2022-11-17T06:40:36.819Z,6.51
2022-11-17T06:43:39.119Z,6.66
2022-11-17T06:46:46.142Z,6.79
2022-11-17T06:49:50.803Z,6.90
2022-11-17T06:52:57.596Z,6.93
2022-11-17T06:56:11.455Z,7.06
2022-11-17T06:59:15.970Z,6.99
2022-11-17T07:02:18.469Z,6.92
2022-11-17T07:05:20.857Z,7.01
2022-11-17T07:08:23.121Z,7.02
2022-11-17T07:11:25.863Z,7.16
2022-11-17T07:14:28.017Z,7.33
2022-11-17T07:17:30.476Z,7.47
2022-11-17T07:20:32.582Z,7.52
2022-11-17T07:23:35.305Z,7.84
2022-11-17T07:26:37.500Z,8.31
2022-11-17T07:29:39.912Z,8.81
2022-11-17T07:32:42.214Z,9.09
2022-11-17T07:35:44.654Z,9.26
2022-11-17T07:38:47.483Z,9.13
2022-11-17T07:41:49.857Z,9.05
2022-11-17T07:44:52.403Z,9.11
2022-11-17T07:47:56.227Z,9.02
2022-11-17T07:50:59.498Z,8.93
2022-11-17T07:54:02.003Z,8.94
2022-11-17T07:57:04.223Z,9.13
2022-11-17T08:00:07.279Z,9.33
2022-11-17T08:03:14.062Z,9.60
2022-11-17T08:06:17.043Z,9.51
2022-11-17T08:09:19.321Z,9.65
2022-11-17T08:12:21.815Z,9.93
2022-11-17T08:15:23.966Z,10.13
2022-11-17T08:18:26.487Z,10.36
2022-11-17T08:21:28.611Z,10.71
2022-11-17T08:24:30.952Z,10.75
2022-11-17T08:27:35.011Z,10.83
2022-11-17T08:30:37.404Z,11.00
2022-11-17T08:33:39.781Z,11.16
2022-11-17T08:36:42.679Z,11.17
2022-11-17T08:39:44.913Z,11.31
2022-11-17T08:42:57.524Z,11.09
2022-11-17T08:46:03.084Z,10.48
2022-11-17T08:49:05.437Z,10.34
2022-11-17T08:52:07.508Z,10.36
2022-11-17T08:55:10.628Z,10.38
2022-11-17T08:58:13.006Z,10.44
2022-11-17T09:01:16.612Z,10.47
2022-11-17T09:04:19.465Z,10.44
2022-11-17T09:07:22.049Z,10.50
2022-11-17T09:10:25.031Z,11.16
2022-11-17T09:13:27.398Z,11.55
2022-11-17T09:16:29.589Z,11.65
2022-11-17T09:19:32.069Z,12.02
2022-11-17T09:22:34.172Z,12.09
2022-11-17T09:25:36.579Z,11.55
2022-11-17T09:28:39.582Z,11.69
2022-11-17T09:31:42.145Z,11.58
2022-11-17T09:34:44.350Z,11.57
2022-11-17T09:37:46.875Z,11.59
2022-11-17T09:40:49.090Z,11.44
2022-11-17T09:44:23.359Z,12.15
2022-11-17T09:48:18.391Z,11.65
2022-11-17T09:51:25.314Z,10.74
2022-11-17T09:54:42.484Z,10.44
2022-11-17T09:57:51.079Z,10.46
2022-11-17T10:00:54.339Z,10.19
2022-11-17T10:03:59.188Z,10.43
2022-11-17T10:07:03.873Z,10.67
2022-11-17T10:10:13.354Z,10.94
2022-11-17T10:13:30.659Z,10.94
2022-11-17T10:16:33.262Z,10.99
2022-11-17T10:19:38.206Z,11.25
2022-11-17T10:22:43.469Z,11.34
2022-11-17T10:25:48.849Z,11.84
2022-11-17T10:29:12.928Z,12.68
2022-11-17T10:32:15.292Z,13.10
2022-11-17T10:35:26.966Z,13.58
2022-11-17T10:38:30.631Z,13.44
2022-11-17T10:41:39.005Z,14.23
2022-11-17T10:44:43.605Z,16.46
2022-11-17T10:47:46.109Z,16.83
2022-11-17T10:50:58.120Z,16.22
2022-11-17T10:54:21.127Z,16.48
2022-11-17T10:57:26.715Z,15.87
2022-11-17T11:00:36.932Z,13.99
2022-11-17T11:03:49.746Z,13.47
2022-11-17T11:07:12.947Z,14.54
2022-11-17T11:10:32.488Z,14.57
2022-11-17T11:13:45.195Z,14.32
2022-11-17T11:16:50.537Z,14.52
2022-11-17T11:19:53.644Z,14.79
2022-11-17T11:23:20.803Z,14.35
2022-11-17T11:26:42.323Z,15.81
2022-11-17T11:30:09.679Z,13.94
2022-11-17T11:33:24.050Z,12.98
2022-11-17T11:36:28.995Z,12.33
2022-11-17T11:40:01.079Z,12.39
2022-11-17T11:43:18.489Z,12.22
2022-11-17T11:46:46.302Z,12.33
2022-11-17T11:50:09.955Z,12.17
2022-11-17T11:53:39.996Z,11.53
2022-11-17T11:56:46.025Z,11.12
2022-11-17T12:00:05.222Z,11.30
2022-11-17T12:03:30.203Z,11.71
2022-11-17T12:07:02.118Z,11.95
2022-11-17T12:10:46.212Z,12.21
2022-11-17T12:13:53.986Z,12.83
2022-11-17T12:17:07.430Z,12.77
2022-11-17T12:20:38.588Z,12.69
2022-11-17T12:24:13.814Z,12.79
2022-11-17T12:27:34.534Z,12.39
2022-11-17T12:30:45.618Z,11.83
2022-11-17T12:33:54.285Z,11.77
2022-11-17T12:37:21.683Z,11.84
2022-11-17T12:40:39.293Z,12.24
2022-11-17T12:43:41.547Z,12.14
2022-11-17T12:46:48.000Z,11.89
2022-11-17T12:49:59.644Z,12.32
2022-11-17T12:53:34.261Z,12.26
2022-11-17T12:56:54.854Z,12.33
2022-11-17T12:59:57.216Z,12.14
2022-11-17T13:03:10.338Z,11.69
2022-11-17T13:09:37.384Z,11.45
2022-11-17T13:12:39.733Z,11.65
2022-11-17T13:15:43.461Z,11.36
2022-11-17T13:18:47.143Z,11.19
2022-11-17T13:21:49.239Z,10.94
2022-11-17T13:24:53.748Z,10.94
2022-11-17T13:28:01.258Z,10.99
2022-11-17T13:31:16.744Z,11.05
2022-11-17T13:34:21.228Z,10.98
2022-11-17T13:37:26.642Z,11.10
2022-11-17T13:40:29.723Z,11.06
2022-11-17T13:43:38.989Z,11.29
2022-11-17T13:46:41.111Z,11.25
2022-11-17T13:49:43.431Z,11.00
2022-11-17T13:52:47.076Z,10.90
2022-11-17T13:55:50.233Z,10.93
2022-11-17T13:58:52.775Z,10.88
2022-11-17T14:02:17.227Z,11.01
2022-11-17T14:05:23.119Z,10.82
2022-11-17T14:08:31.642Z,10.86
2022-11-17T14:11:34.003Z,10.78
2022-11-17T14:14:38.799Z,10.73
2022-11-17T14:17:41.719Z,10.74
2022-11-17T14:20:43.834Z,10.63
2022-11-17T14:23:46.230Z,10.66
2022-11-17T14:26:48.353Z,10.61
2022-11-17T14:29:50.665Z,10.61
2022-11-17T14:32:52.729Z,10.52
2022-11-17T14:35:59.239Z,10.41
2022-11-17T14:39:02.897Z,10.37
2022-11-17T14:42:05.344Z,10.33
2022-11-17T14:45:12.107Z,10.32
2022-11-17T14:48:18.772Z,10.14
2022-11-17T14:51:22.478Z,10.13
2022-11-17T14:54:25.223Z,10.11
2022-11-17T14:57:27.338Z,10.04
2022-11-17T15:00:29.806Z,10.04
2022-11-17T15:03:31.980Z,10.02
2022-11-17T15:06:34.938Z,9.98
2022-11-17T15:09:37.024Z,9.94
2022-11-17T15:12:39.335Z,9.85
2022-11-17T15:15:41.491Z,9.76
2022-11-17T15:18:48.261Z,9.71
2022-11-17T15:21:50.315Z,9.65
2022-11-17T15:24:52.653Z,9.62
2022-11-17T15:27:55.758Z,9.64
2022-11-17T15:30:58.400Z,9.58
2022-11-17T15:34:01.060Z,9.58
2022-11-17T15:37:03.482Z,9.60
2022-11-17T15:40:06.291Z,9.68
2022-11-17T15:43:08.642Z,9.60
2022-11-17T15:46:16.441Z,9.43
2022-11-17T15:49:18.991Z,9.28
2022-11-17T15:52:41.471Z,9.21
2022-11-17T15:55:43.595Z,9.18
2022-11-17T15:58:47.054Z,9.21
2022-11-17T16:01:49.640Z,9.12
2022-11-17T16:04:51.994Z,9.17
2022-11-17T16:07:54.106Z,9.16
2022-11-17T16:10:56.531Z,9.20
2022-11-17T16:13:59.756Z,9.23
2022-11-17T16:17:02.145Z,9.15
2022-11-17T16:20:04.653Z,9.11
